Time;durP1;ratioP1;P1;durP2;ratioP2;P2;SDS_P1;SDS_P2;PMS_P1;PMS_P2;Temp;Humidity;BMP_temperature;BMP_pressure;BME280_temperature;BME280_humidity;BME280_pressure;Samples;Min_cycle;Max_cycle;Signal;HPM_P1;HPM_P2
2022/04/13 00:00:27;;;;;;;6.33;4.17;;;;;;;;;;5053693;28;20466;-75
2022/04/13 00:02:53;;;;;;;9.30;4.40;;;;;;;;;;5052424;28;20414;-74
2022/04/13 00:05:19;;;;;;;16.33;4.20;;;;;;;;;;5052389;28;20423;-74
2022/04/13 00:07:45;;;;;;;4.53;4.23;;;;;;;;;;5053625;28;20775;-71
2022/04/13 00:10:11;;;;;;;4.33;4.03;;;;;;;;;;5053539;28;20498;-73
2022/04/13 00:12:37;;;;;;;5.80;4.80;;;;;;;;;;5053702;28;20430;-74
2022/04/13 00:15:04;;;;;;;4.30;4.00;;;;;;;;;;5053701;28;20423;-72
2022/04/13 00:17:30;;;;;;;4.00;3.80;;;;;;;;;;5053408;28;20399;-73
2022/04/13 00:19:56;;;;;;;6.03;4.47;;;;;;;;;;5053422;28;20473;-72
2022/04/13 00:22:22;;;;;;;6.57;4.67;;;;;;;;;;5053648;28;20407;-72
2022/04/13 00:24:48;;;;;;;4.80;4.40;;;;;;;;;;5053354;28;20411;-75
2022/04/13 00:27:14;;;;;;;6.33;4.40;;;;;;;;;;5053401;28;20400;-72
2022/04/13 00:29:40;;;;;;;5.00;4.50;;;;;;;;;;5053222;28;20430;-74
2022/04/13 00:32:07;;;;;;;11.90;5.00;;;;;;;;;;5053320;28;20399;-75
2022/04/13 00:34:33;;;;;;;4.13;3.83;;;;;;;;;;5052026;28;20427;-74
2022/04/13 00:36:59;;;;;;;4.63;3.90;;;;;;;;;;5053189;28;20404;-74
2022/04/13 00:39:28;;;;;;;9.13;4.67;;;;;;;;;;5053071;28;20977;-75
2022/04/13 00:42:04;;;;;;;11.43;4.20;;;;;;;;;;5053264;28;20406;-74
2022/04/13 00:44:30;;;;;;;4.80;4.50;;;;;;;;;;5053096;28;20400;-74
2022/04/13 00:46:57;;;;;;;4.10;3.93;;;;;;;;;;5053195;28;20844;-74
2022/04/13 00:49:24;;;;;;;4.90;3.80;;;;;;;;;;5051906;28;20490;-74
2022/04/13 00:51:50;;;;;;;6.10;4.10;;;;;;;;;;5053136;28;20401;-71
2022/04/13 00:54:18;;;;;;;4.00;3.73;;;;;;;;;;5053216;28;20396;-73
2022/04/13 00:56:46;;;;;;;3.97;3.77;;;;;;;;;;5053097;28;20412;-73
2022/04/13 00:59:13;;;;;;;4.40;3.30;;;;;;;;;;5053030;28;20467;-71
2022/04/13 01:01:49;;;;;;;3.97;3.77;;;;;;;;;;5055172;28;20469;-70
2022/04/13 01:04:16;;;;;;;4.57;4.30;;;;;;;;;;5057075;28;20410;-71
2022/04/13 01:06:43;;;;;;;5.43;4.10;;;;;;;;;;5057198;28;20767;-71
2022/04/13 01:09:11;;;;;;;7.77;4.37;;;;;;;;;;5057002;28;20403;-72
2022/04/13 01:11:37;;;;;;;12.40;4.20;;;;;;;;;;5056980;28;20905;-73
2022/04/13 01:14:03;;;;;;;5.53;3.87;;;;;;;;;;5056894;28;20418;-72
2022/04/13 01:16:29;;;;;;;3.97;3.70;;;;;;;;;;5056895;28;20400;-70
2022/04/13 01:18:55;;;;;;;5.40;3.97;;;;;;;;;;5056696;28;20419;-72
2022/04/13 01:21:42;;;;;;;4.30;4.10;;;;;;;;;;5056934;28;20764;-71
2022/04/13 01:24:11;;;;;;;4.60;4.13;;;;;;;;;;5055423;28;20407;-71
2022/04/13 01:26:37;;;;;;;5.70;4.10;;;;;;;;;;5056749;28;20424;-71
2022/04/13 01:29:03;;;;;;;4.00;3.80;;;;;;;;;;5056538;28;20898;-73
2022/04/13 01:31:29;;;;;;;4.00;3.70;;;;;;;;;;5056534;28;20422;-74
2022/04/13 01:33:56;;;;;;;7.80;4.33;;;;;;;;;;5056575;28;20411;-72
2022/04/13 01:36:22;;;;;;;6.23;4.23;;;;;;;;;;5055218;28;20455;-74
2022/04/13 01:38:48;;;;;;;4.40;3.70;;;;;;;;;;5056181;28;20767;-72
2022/04/13 01:41:14;;;;;;;4.30;3.73;;;;;;;;;;5056459;28;20415;-74
2022/04/13 01:43:40;;;;;;;4.93;4.00;;;;;;;;;;5056273;28;20779;-74
2022/04/13 01:46:06;;;;;;;5.90;4.00;;;;;;;;;;5056308;28;20417;-72
2022/04/13 01:48:32;;;;;;;5.50;3.97;;;;;;;;;;5056249;28;20411;-74
2022/04/13 01:50:59;;;;;;;4.97;4.10;;;;;;;;;;5056186;28;20447;-74
2022/04/13 01:53:25;;;;;;;8.00;4.10;;;;;;;;;;5056129;28;20409;-71
2022/04/13 01:55:53;;;;;;;4.17;3.53;;;;;;;;;;5056133;28;20473;-74
2022/04/13 01:58:20;;;;;;;8.57;4.03;;;;;;;;;;5055985;28;20403;-72
2022/04/13 02:00:46;;;;;;;4.17;3.83;;;;;;;;;;5056258;28;20466;-73
2022/04/13 02:03:11;;;;;;;3.77;3.67;;;;;;;;;;5055939;28;20506;-73
2022/04/13 02:05:37;;;;;;;4.30;3.97;;;;;;;;;;5055807;28;20490;-74
2022/04/13 02:08:04;;;;;;;3.93;3.63;;;;;;;;;;5055903;28;20879;-74
2022/04/13 02:10:29;;;;;;;4.03;3.70;;;;;;;;;;5054535;28;20795;-74
2022/04/13 02:12:56;;;;;;;6.87;4.00;;;;;;;;;;5055462;28;20403;-72
2022/04/13 02:15:22;;;;;;;4.03;3.73;;;;;;;;;;5055699;28;20415;-72
2022/04/13 02:17:47;;;;;;;4.50;4.17;;;;;;;;;;5055691;28;20502;-74
2022/04/13 02:20:14;;;;;;;4.10;3.80;;;;;;;;;;5054317;28;20906;-74
2022/04/13 02:22:40;;;;;;;3.80;3.70;;;;;;;;;;5055600;28;20473;-72
2022/04/13 02:25:06;;;;;;;3.83;3.63;;;;;;;;;;5055821;28;20437;-73
2022/04/13 02:27:33;;;;;;;4.20;3.80;;;;;;;;;;5055798;28;20439;-73
2022/04/13 02:29:59;;;;;;;3.83;3.60;;;;;;;;;;5055683;28;20430;-74
2022/04/13 02:32:25;;;;;;;4.43;4.03;;;;;;;;;;5055689;28;20575;-72
2022/04/13 02:34:51;;;;;;;4.13;3.83;;;;;;;;;;5055977;28;20521;-70
2022/04/13 02:37:17;;;;;;;5.60;3.67;;;;;;;;;;5055501;28;20401;-71
2022/04/13 02:39:44;;;;;;;4.87;4.37;;;;;;;;;;5055218;28;20490;-70
2022/04/13 02:42:14;;;;;;;5.57;4.57;;;;;;;;;;5055305;28;20399;-70
2022/04/13 02:44:40;;;;;;;9.70;3.73;;;;;;;;;;5055310;28;20519;-73
2022/04/13 02:47:06;;;;;;;7.30;3.80;;;;;;;;;;5055334;28;20505;-71
2022/04/13 02:49:32;;;;;;;4.63;4.33;;;;;;;;;;5055101;28;20415;-71
2022/04/13 02:51:58;;;;;;;4.10;3.90;;;;;;;;;;5055076;28;20414;-70
2022/04/13 02:54:24;;;;;;;4.53;4.03;;;;;;;;;;5055038;28;20414;-71
2022/04/13 02:56:50;;;;;;;5.57;3.60;;;;;;;;;;5054966;28;20423;-71
2022/04/13 02:59:16;;;;;;;3.63;3.50;;;;;;;;;;5055071;28;20608;-71
2022/04/13 03:01:43;;;;;;;3.43;3.23;;;;;;;;;;5054857;28;20851;-71
2022/04/13 03:04:09;;;;;;;4.90;4.40;;;;;;;;;;5054798;28;20402;-71
2022/04/13 03:06:35;;;;;;;7.00;3.77;;;;;;;;;;5054839;28;20779;-71
2022/04/13 03:09:03;;;;;;;3.57;3.30;;;;;;;;;;5054788;28;20406;-71
2022/04/13 03:11:29;;;;;;;4.20;3.90;;;;;;;;;;5054918;28;20490;-71
2022/04/13 03:13:56;;;;;;;4.77;3.73;;;;;;;;;;5054603;28;20415;-71
2022/04/13 03:16:22;;;;;;;5.27;3.70;;;;;;;;;;5054899;28;20411;-70
2022/04/13 03:18:48;;;;;;;4.07;3.87;;;;;;;;;;5054466;28;20898;-70
2022/04/13 03:21:14;;;;;;;4.63;3.87;;;;;;;;;;5054415;28;20470;-70
2022/04/13 03:23:40;;;;;;;4.17;3.27;;;;;;;;;;5052424;28;20441;-71
2022/04/13 03:26:06;;;;;;;5.77;4.80;;;;;;;;;;5054370;28;20782;-71
2022/04/13 03:28:32;;;;;;;3.33;3.20;;;;;;;;;;5054308;28;20422;-71
2022/04/13 03:30:58;;;;;;;5.67;4.00;;;;;;;;;;5054273;28;20411;-71
2022/04/13 03:33:24;;;;;;;5.23;3.50;;;;;;;;;;5054229;28;20464;-71
2022/04/13 03:35:50;;;;;;;4.33;4.03;;;;;;;;;;5054198;28;20399;-71
2022/04/13 03:38:16;;;;;;;7.80;3.80;;;;;;;;;;5054262;28;20950;-72
2022/04/13 03:40:42;;;;;;;4.10;3.70;;;;;;;;;;5053922;28;20482;-71
2022/04/13 03:43:08;;;;;;;7.60;4.07;;;;;;;;;;5052686;28;20793;-72
2022/04/13 03:45:34;;;;;;;4.07;3.77;;;;;;;;;;5053974;28;20514;-71
2022/04/13 03:48:00;;;;;;;4.00;3.70;;;;;;;;;;5053911;28;20407;-72
2022/04/13 03:50:26;;;;;;;3.97;3.67;;;;;;;;;;5053927;28;20844;-71
2022/04/13 03:52:52;;;;;;;9.27;3.53;;;;;;;;;;5053931;28;20406;-71
2022/04/13 03:55:22;;;;;;;6.23;3.43;;;;;;;;;;5053934;28;20425;-71
2022/04/13 03:57:48;;;;;;;4.07;3.57;;;;;;;;;;5053815;28;20405;-71
2022/04/13 04:00:14;;;;;;;9.03;3.57;;;;;;;;;;5053932;28;20470;-71
2022/04/13 04:02:40;;;;;;;6.23;4.30;;;;;;;;;;5053959;28;20431;-71
2022/04/13 04:05:06;;;;;;;4.17;3.97;;;;;;;;;;5053692;28;20387;-71
2022/04/13 04:07:32;;;;;;;6.53;4.37;;;;;;;;;;5054011;28;20752;-71
2022/04/13 04:09:58;;;;;;;4.00;3.70;;;;;;;;;;5053668;28;20408;-71
2022/04/13 04:12:24;;;;;;;3.73;3.63;;;;;;;;;;5053570;28;20399;-71
2022/04/13 04:14:50;;;;;;;7.37;4.63;;;;;;;;;;5053524;28;20498;-71
2022/04/13 04:17:16;;;;;;;6.90;4.40;;;;;;;;;;5053471;28;20415;-71
2022/04/13 04:19:42;;;;;;;5.90;3.87;;;;;;;;;;5053414;28;20477;-71
2022/04/13 04:22:09;;;;;;;4.40;4.00;;;;;;;;;;5053431;28;20399;-71
2022/04/13 04:24:34;;;;;;;3.43;3.13;;;;;;;;;;5053660;28;20418;-71
2022/04/13 04:27:00;;;;;;;4.50;4.10;;;;;;;;;;5053392;28;20468;-71
2022/04/13 04:29:26;;;;;;;12.10;3.90;;;;;;;;;;5053321;28;20428;-71
2022/04/13 04:31:59;;;;;;;4.50;3.90;;;;;;;;;;5053383;28;20403;-71
2022/04/13 04:34:26;;;;;;;4.10;3.20;;;;;;;;;;5053109;28;20411;-71
2022/04/13 04:36:52;;;;;;;3.67;3.37;;;;;;;;;;5053336;28;20870;-72
2022/04/13 04:39:18;;;;;;;5.97;4.17;;;;;;;;;;5052957;28;20494;-72
2022/04/13 04:41:44;;;;;;;4.63;3.20;;;;;;;;;;5053522;28;20407;-72
2022/04/13 04:44:11;;;;;;;4.70;3.83;;;;;;;;;;5053209;28;20411;-71
2022/04/13 04:46:37;;;;;;;3.97;3.70;;;;;;;;;;5053248;28;20456;-72
2022/04/13 04:49:04;;;;;;;5.10;4.67;;;;;;;;;;5053121;28;20419;-73
2022/04/13 04:51:31;;;;;;;4.40;4.00;;;;;;;;;;5053179;28;20754;-72
2022/04/13 04:53:57;;;;;;;6.07;4.20;;;;;;;;;;5052984;28;20903;-71
2022/04/13 04:56:23;;;;;;;6.23;4.20;;;;;;;;;;5053086;28;20406;-73
2022/04/13 04:58:49;;;;;;;6.40;4.27;;;;;;;;;;5053077;28;20818;-74
2022/04/13 05:01:15;;;;;;;5.33;4.13;;;;;;;;;;5053094;28;20466;-74
2022/04/13 05:03:43;;;;;;;4.60;4.20;;;;;;;;;;5053087;28;20503;-74
2022/04/13 05:06:09;;;;;;;4.43;4.13;;;;;;;;;;5053080;28;20399;-74
2022/04/13 05:08:35;;;;;;;8.80;4.90;;;;;;;;;;5053347;28;20756;-74
2022/04/13 05:11:02;;;;;;;3.70;3.50;;;;;;;;;;5052939;28;20411;-74
2022/04/13 05:13:29;;;;;;;3.63;3.53;;;;;;;;;;5053161;28;20507;-74
2022/04/13 05:15:55;;;;;;;5.20;4.80;;;;;;;;;;5052886;28;20407;-73
2022/04/13 05:18:21;;;;;;;4.60;4.30;;;;;;;;;;5052790;28;20401;-73
2022/04/13 05:20:47;;;;;;;6.57;4.93;;;;;;;;;;5052830;28;20471;-74
2022/04/13 05:23:13;;;;;;;5.70;5.10;;;;;;;;;;5052848;28;20411;-71
2022/04/13 05:25:39;;;;;;;9.93;5.70;;;;;;;;;;5053066;28;20414;-72
2022/04/13 05:28:05;;;;;;;5.90;5.40;;;;;;;;;;5052698;28;20740;-72
2022/04/13 05:30:31;;;;;;;8.20;5.57;;;;;;;;;;5052746;28;20533;-72
2022/04/13 05:33:01;;;;;;;16.83;12.17;;;;;;;;;;5052740;28;20868;-70
2022/04/13 05:35:28;;;;;;;9.00;8.23;;;;;;;;;;5052705;28;20433;-75
2022/04/13 05:37:54;;;;;;;9.13;6.07;;;;;;;;;;5052653;28;20894;-70
2022/04/13 05:40:22;;;;;;;6.13;5.63;;;;;;;;;;5052460;28;20481;-74
2022/04/13 05:42:48;;;;;;;6.00;5.40;;;;;;;;;;5052957;28;20403;-74
2022/04/13 05:45:15;;;;;;;9.90;6.03;;;;;;;;;;5052729;28;20430;-74
2022/04/13 05:47:44;;;;;;;5.87;5.27;;;;;;;;;;5054631;28;20414;-72
2022/04/13 05:50:11;;;;;;;14.57;5.23;;;;;;;;;;5056242;28;20411;-73
2022/04/13 05:52:37;;;;;;;8.20;5.50;;;;;;;;;;5056345;28;20456;-78
2022/04/13 05:55:05;;;;;;;7.77;5.70;;;;;;;;;;5056290;28;20494;-76
2022/04/13 05:57:31;;;;;;;11.40;5.53;;;;;;;;;;5054965;28;20431;-69
2022/04/13 05:59:57;;;;;;;12.43;5.60;;;;;;;;;;5056041;28;20474;-75
2022/04/13 06:02:23;;;;;;;8.40;5.57;;;;;;;;;;5054889;28;20474;-76
2022/04/13 06:04:49;;;;;;;7.50;5.53;;;;;;;;;;5056067;28;20417;-76
2022/04/13 06:07:15;;;;;;;12.13;5.67;;;;;;;;;;5056091;28;20403;-74
2022/04/13 06:09:41;;;;;;;6.50;5.53;;;;;;;;;;5056292;28;20407;-74
2022/04/13 06:12:07;;;;;;;6.67;6.10;;;;;;;;;;5055984;28;20905;-75
2022/04/13 06:14:33;;;;;;;9.80;6.00;;;;;;;;;;5055885;28;20423;-72
2022/04/13 06:16:59;;;;;;;7.87;7.10;;;;;;;;;;5055885;28;20421;-75
2022/04/13 06:19:25;;;;;;;14.10;6.57;;;;;;;;;;5055889;28;20442;-74
2022/04/13 06:21:51;;;;;;;89.30;64.57;;;;;;;;;;5055828;28;20418;-71
2022/04/13 06:24:17;;;;;;;12.43;9.27;;;;;;;;;;5055756;28;20812;-72
2022/04/13 06:26:43;;;;;;;8.13;7.20;;;;;;;;;;5055713;28;20407;-71
2022/04/13 06:29:09;;;;;;;5.53;4.80;;;;;;;;;;5055709;28;20461;-72
2022/04/13 06:31:35;;;;;;;13.70;7.57;;;;;;;;;;5054406;28;20434;-72
2022/04/13 06:34:01;;;;;;;16.67;6.83;;;;;;;;;;5055583;28;20414;-76
2022/04/13 06:36:27;;;;;;;26.83;11.73;;;;;;;;;;5055516;28;20407;-73
2022/04/13 06:38:54;;;;;;;17.23;7.20;;;;;;;;;;5055495;28;20502;-76
2022/04/13 06:41:21;;;;;;;16.60;4.50;;;;;;;;;;5055531;28;20470;-71
2022/04/13 06:43:47;;;;;;;7.17;5.83;;;;;;;;;;5055322;28;20450;-70
2022/04/13 06:46:13;;;;;;;8.57;5.50;;;;;;;;;;5055509;28;20421;-73
2022/04/13 06:48:39;;;;;;;5.53;4.90;;;;;;;;;;5055257;28;20449;-73
2022/04/13 06:51:05;;;;;;;11.77;4.97;;;;;;;;;;5053977;28;20507;-74
2022/04/13 06:53:31;;;;;;;5.70;4.30;;;;;;;;;;5055177;28;20437;-73
2022/04/13 06:55:57;;;;;;;4.90;4.27;;;;;;;;;;5055343;28;20412;-74
2022/04/13 06:58:23;;;;;;;7.80;4.30;;;;;;;;;;5054909;28;20412;-74
2022/04/13 07:00:49;;;;;;;9.80;5.70;;;;;;;;;;5054888;28;20471;-74
2022/04/13 07:03:15;;;;;;;71.80;55.73;;;;;;;;;;5054930;28;20396;-73
2022/04/13 07:05:41;;;;;;;37.30;14.80;;;;;;;;;;5054880;28;20943;-74
2022/04/13 07:08:07;;;;;;;6.57;5.57;;;;;;;;;;5054815;28;20445;-74
2022/04/13 07:10:34;;;;;;;5.63;4.13;;;;;;;;;;5054723;28;20433;-75
2022/04/13 07:13:00;;;;;;;4.07;3.70;;;;;;;;;;5053249;28;20932;-74
2022/04/13 07:15:26;;;;;;;6.70;3.73;;;;;;;;;;5054670;28;20418;-75
2022/04/13 07:17:52;;;;;;;6.57;3.80;;;;;;;;;;5053359;28;20429;-77
2022/04/13 07:20:18;;;;;;;5.70;3.90;;;;;;;;;;5054634;28;20469;-77
2022/04/13 07:22:45;;;;;;;5.13;3.30;;;;;;;;;;5054637;28;20407;-76
2022/04/13 07:25:11;;;;;;;9.70;3.23;;;;;;;;;;5054617;28;20422;-76
2022/04/13 07:27:37;;;;;;;4.83;2.90;;;;;;;;;;5054530;28;20437;-74
2022/04/13 07:30:04;;;;;;;3.47;3.17;;;;;;;;;;5054293;28;20458;-79
2022/04/13 07:32:30;;;;;;;3.10;2.80;;;;;;;;;;5054424;28;20939;-74
2022/04/13 07:34:59;;;;;;;9.90;3.40;;;;;;;;;;5054316;28;20411;-75
2022/04/13 07:37:25;;;;;;;5.77;2.80;;;;;;;;;;5054287;28;20403;-74
2022/04/13 07:39:50;;;;;;;4.97;2.80;;;;;;;;;;5054039;28;20834;-73
2022/04/13 07:42:23;;;;;;;4.77;3.10;;;;;;;;;;5054292;28;20411;-74
2022/04/13 07:44:49;;;;;;;6.23;2.93;;;;;;;;;;5054036;28;20427;-75
2022/04/13 07:47:15;;;;;;;3.63;2.50;;;;;;;;;;5054165;28;20500;-75
2022/04/13 07:49:44;;;;;;;3.77;2.40;;;;;;;;;;5054062;28;20422;-75
2022/04/13 07:52:10;;;;;;;7.93;2.93;;;;;;;;;;5054099;28;20409;-76
2022/04/13 07:54:36;;;;;;;7.63;2.60;;;;;;;;;;5052672;28;20431;-76
2022/04/13 07:57:02;;;;;;;8.50;2.53;;;;;;;;;;5053922;28;20421;-76
2022/04/13 07:59:29;;;;;;;7.80;2.70;;;;;;;;;;5053818;28;20462;-75
2022/04/13 08:01:55;;;;;;;3.13;2.30;;;;;;;;;;5053792;28;20423;-76
2022/04/13 08:04:21;;;;;;;3.20;2.27;;;;;;;;;;5053763;28;20411;-74
2022/04/13 08:06:47;;;;;;;5.40;2.43;;;;;;;;;;5053751;28;20420;-75
2022/04/13 08:09:13;;;;;;;8.07;2.53;;;;;;;;;;5053572;28;20472;-76
2022/04/13 08:11:39;;;;;;;8.67;2.40;;;;;;;;;;5053616;28;20412;-73
2022/04/13 08:14:05;;;;;;;2.43;2.03;;;;;;;;;;5053647;28;20449;-73
2022/04/13 08:16:31;;;;;;;3.90;2.37;;;;;;;;;;5053682;28;20422;-74
2022/04/13 08:18:57;;;;;;;2.60;2.20;;;;;;;;;;5053604;28;20415;-77
2022/04/13 08:21:23;;;;;;;5.63;2.67;;;;;;;;;;5052582;28;20483;-73
2022/04/13 08:23:50;;;;;;;7.00;2.17;;;;;;;;;;5053565;28;20401;-74
2022/04/13 08:26:16;;;;;;;4.00;2.40;;;;;;;;;;5053753;28;20413;-75
2022/04/13 08:28:42;;;;;;;13.60;2.43;;;;;;;;;;5053485;28;20919;-75
2022/04/13 08:31:09;;;;;;;2.23;2.03;;;;;;;;;;5053451;28;20411;-76
2022/04/13 08:33:36;;;;;;;9.07;2.57;;;;;;;;;;5053699;28;20418;-76
2022/04/13 08:36:02;;;;;;;4.93;2.20;;;;;;;;;;5053519;28;20458;-76
2022/04/13 08:38:28;;;;;;;3.07;2.53;;;;;;;;;;5053350;28;20409;-77
2022/04/13 08:40:59;;;;;;;2.73;1.80;;;;;;;;;;5051799;28;20534;-76
2022/04/13 08:43:45;;;;;;;2.40;2.07;;;;;;;;;;5053240;28;20885;-75
2022/04/13 08:46:18;;;;;;;8.73;2.20;;;;;;;;;;5045020;28;20521;-72
2022/04/13 08:48:47;;;;;;;5.33;2.10;;;;;;;;;;5053417;28;20507;-75
2022/04/13 08:51:17;;;;;;;2.70;2.10;;;;;;;;;;5053129;28;20961;-75
2022/04/13 08:53:44;;;;;;;5.60;2.10;;;;;;;;;;5053313;28;20401;-76
2022/04/13 08:56:13;;;;;;;4.40;2.13;;;;;;;;;;5053244;28;20490;-76
2022/04/13 08:58:50;;;;;;;11.43;2.20;;;;;;;;;;5053124;28;20426;-76
2022/04/13 09:01:20;;;;;;;8.13;2.50;;;;;;;;;;5053216;28;20504;-74
2022/04/13 09:03:49;;;;;;;4.43;2.37;;;;;;;;;;5053410;28;20424;-76
2022/04/13 09:06:15;;;;;;;8.33;2.03;;;;;;;;;;5053203;28;20403;-75
2022/04/13 09:08:44;;;;;;;3.27;2.00;;;;;;;;;;5053077;28;20405;-77
2022/04/13 09:11:11;;;;;;;2.90;1.97;;;;;;;;;;5052998;28;20760;-76
2022/04/13 09:13:38;;;;;;;2.47;2.17;;;;;;;;;;5052999;28;20449;-76
2022/04/13 09:16:04;;;;;;;9.13;2.00;;;;;;;;;;5052150;28;20439;-74
2022/04/13 09:18:30;;;;;;;3.97;2.57;;;;;;;;;;5053092;28;20488;-75
2022/04/13 09:20:56;;;;;;;2.10;1.67;;;;;;;;;;5051678;28;20565;-77
2022/04/13 09:23:22;;;;;;;3.57;2.00;;;;;;;;;;5054834;28;20435;-77
2022/04/13 09:25:51;;;;;;;2.40;2.10;;;;;;;;;;5056962;28;20415;-74
2022/04/13 09:28:17;;;;;;;2.40;2.03;;;;;;;;;;5056701;28;20407;-74
2022/04/13 09:30:43;;;;;;;8.73;2.30;;;;;;;;;;5056720;28;20493;-73
2022/04/13 09:33:09;;;;;;;2.90;1.83;;;;;;;;;;5056691;28;20412;-76
2022/04/13 09:35:35;;;;;;;7.10;2.53;;;;;;;;;;5056636;28;20412;-78
2022/04/13 09:38:02;;;;;;;2.93;2.20;;;;;;;;;;5056717;28;20398;-77
2022/04/13 09:40:41;;;;;;;2.40;2.13;;;;;;;;;;5056433;28;20491;-77
2022/04/13 09:43:11;;;;;;;4.50;1.97;;;;;;;;;;5056555;28;20403;-76
2022/04/13 09:45:40;;;;;;;4.07;2.30;;;;;;;;;;5056408;28;20410;-76
2022/04/13 09:48:07;;;;;;;6.40;2.80;;;;;;;;;;5055203;28;20502;-75
2022/04/13 09:50:33;;;;;;;5.07;2.47;;;;;;;;;;5055086;28;20423;-76
2022/04/13 09:53:03;;;;;;;4.27;2.70;;;;;;;;;;5055068;28;20420;-77
2022/04/13 09:55:30;;;;;;;2.93;2.53;;;;;;;;;;5056337;28;20409;-78
2022/04/13 09:58:11;;;;;;;3.83;2.57;;;;;;;;;;5056302;28;20415;-76
2022/04/13 10:00:37;;;;;;;3.07;2.37;;;;;;;;;;5056179;28;20512;-78
2022/04/13 10:03:08;;;;;;;2.80;2.60;;;;;;;;;;5056187;28;20493;-77
2022/04/13 10:05:34;;;;;;;3.73;2.60;;;;;;;;;;5056263;28;20456;-76
2022/04/13 10:08:04;;;;;;;4.17;2.30;;;;;;;;;;5056390;28;20403;-78
2022/04/13 10:10:31;;;;;;;8.40;2.50;;;;;;;;;;5056154;28;20501;-77
2022/04/13 10:12:57;;;;;;;8.80;2.70;;;;;;;;;;5055973;28;20877;-74
2022/04/13 10:15:23;;;;;;;5.10;2.93;;;;;;;;;;5055962;28;20460;-77
2022/04/13 10:17:49;;;;;;;5.37;2.80;;;;;;;;;;5055917;28;20418;-76
2022/04/13 10:20:15;;;;;;;4.63;2.90;;;;;;;;;;5055863;28;20971;-78
2022/04/13 10:23:00;;;;;;;4.57;3.03;;;;;;;;;;5055835;28;20897;-73
2022/04/13 10:25:27;;;;;;;3.50;3.20;;;;;;;;;;5055817;28;20500;-73
2022/04/13 10:27:57;;;;;;;10.40;4.03;;;;;;;;;;5055717;28;20734;-73
2022/04/13 10:30:27;;;;;;;5.33;3.50;;;;;;;;;;5054337;28;20428;-72
2022/04/13 10:33:13;;;;;;;14.97;3.60;;;;;;;;;;5055300;28;20946;-73
2022/04/13 10:35:48;;;;;;;7.83;2.30;;;;;;;;;;5055459;28;20917;-78
2022/04/13 10:38:14;;;;;;;7.00;2.80;;;;;;;;;;5055537;28;20411;-75
2022/04/13 10:40:41;;;;;;;2.00;1.90;;;;;;;;;;5055301;28;20482;-72
2022/04/13 10:43:08;;;;;;;4.40;2.00;;;;;;;;;;5055412;28;20892;-74
2022/04/13 10:45:34;;;;;;;2.60;2.50;;;;;;;;;;5053986;28;21008;-72
2022/04/13 10:48:02;;;;;;;4.93;2.00;;;;;;;;;;5055266;28;20410;-74
2022/04/13 10:50:34;;;;;;;3.53;2.23;;;;;;;;;;5055280;28;20418;-72
2022/04/13 10:53:05;;;;;;;4.43;2.17;;;;;;;;;;5055228;28;20411;-76
2022/04/13 10:55:34;;;;;;;6.77;2.13;;;;;;;;;;5053960;28;20873;-72
2022/04/13 10:58:21;;;;;;;16.20;2.30;;;;;;;;;;5053795;28;20415;-74
2022/04/13 11:00:50;;;;;;;7.50;3.80;;;;;;;;;;5054956;28;20473;-73
2022/04/13 11:03:16;;;;;;;4.03;2.30;;;;;;;;;;5055016;28;20528;-72
2022/04/13 11:05:43;;;;;;;5.40;2.10;;;;;;;;;;5054944;28;20401;-73
2022/04/13 11:08:13;;;;;;;3.13;2.43;;;;;;;;;;5054956;28;20917;-75
2022/04/13 11:10:40;;;;;;;2.07;1.90;;;;;;;;;;5054909;28;20422;-72
2022/04/13 11:13:06;;;;;;;3.53;2.00;;;;;;;;;;5053507;28;20466;-69
2022/04/13 11:15:38;;;;;;;3.10;1.90;;;;;;;;;;5054627;28;20468;-72
2022/04/13 11:18:11;;;;;;;6.13;1.70;;;;;;;;;;5054485;28;20768;-71
2022/04/13 11:20:37;;;;;;;2.10;1.93;;;;;;;;;;5054643;28;20468;-72
2022/04/13 11:23:13;;;;;;;2.23;1.90;;;;;;;;;;5054645;28;20875;-73
2022/04/13 11:25:43;;;;;;;9.13;2.30;;;;;;;;;;5054748;28;20409;-73
2022/04/13 11:28:09;;;;;;;4.00;2.30;;;;;;;;;;5054548;28;20406;-73
2022/04/13 11:30:56;;;;;;;13.10;2.30;;;;;;;;;;5054481;28;20475;-74
2022/04/13 11:33:22;;;;;;;5.90;2.40;;;;;;;;;;5053013;28;20483;-76
2022/04/13 11:35:48;;;;;;;2.70;2.50;;;;;;;;;;5054375;28;20417;-74
2022/04/13 11:38:14;;;;;;;2.30;1.90;;;;;;;;;;5054303;28;20486;-74
2022/04/13 11:41:00;;;;;;;2.43;2.00;;;;;;;;;;5053963;28;20987;-68
2022/04/13 11:43:26;;;;;;;15.27;2.50;;;;;;;;;;5053992;28;20416;-71
2022/04/13 11:45:55;;;;;;;3.00;1.67;;;;;;;;;;5053555;28;20416;-73
2022/04/13 11:48:33;;;;;;;4.67;2.00;;;;;;;;;;5054183;28;20413;-69
2022/04/13 11:51:18;;;;;;;6.10;2.47;;;;;;;;;;5054109;28;20409;-70
2022/04/13 11:54:04;;;;;;;5.37;2.37;;;;;;;;;;5054006;28;20401;-68
2022/04/13 11:56:33;;;;;;;3.47;1.87;;;;;;;;;;5053834;28;20742;-69
2022/04/13 11:58:59;;;;;;;2.33;2.13;;;;;;;;;;5053874;28;20453;-68
2022/04/13 12:01:26;;;;;;;8.13;2.17;;;;;;;;;;5052534;28;20474;-70
2022/04/13 12:03:53;;;;;;;4.97;2.27;;;;;;;;;;5053868;28;20498;-71
2022/04/13 12:06:21;;;;;;;3.43;2.60;;;;;;;;;;5053856;28;20430;-71
2022/04/13 12:08:52;;;;;;;7.00;2.30;;;;;;;;;;5053697;28;20486;-70
2022/04/13 12:11:19;;;;;;;4.00;1.80;;;;;;;;;;5053901;28;20827;-70
2022/04/13 12:13:51;;;;;;;2.43;2.33;;;;;;;;;;5053702;28;20421;-70
2022/04/13 12:16:27;;;;;;;3.90;2.10;;;;;;;;;;5053729;28;20406;-70
2022/04/13 12:19:09;;;;;;;2.53;2.33;;;;;;;;;;5053587;28;20913;-68
2022/04/13 12:21:36;;;;;;;3.03;2.07;;;;;;;;;;5053562;28;20921;-69
2022/04/13 12:24:04;;;;;;;3.03;2.03;;;;;;;;;;5053518;28;20486;-69
2022/04/13 12:26:48;;;;;;;4.93;1.97;;;;;;;;;;5053524;28;20404;-73
2022/04/13 12:29:22;;;;;;;4.97;2.40;;;;;;;;;;5053441;28;20419;-70
2022/04/13 12:31:49;;;;;;;4.40;2.37;;;;;;;;;;5053459;28;20407;-70
2022/04/13 12:34:16;;;;;;;4.10;2.53;;;;;;;;;;5053386;28;20490;-72
2022/04/13 12:36:42;;;;;;;4.67;1.97;;;;;;;;;;5053393;28;20400;-73
2022/04/13 12:39:12;;;;;;;7.50;2.07;;;;;;;;;;5053198;28;20450;-72
2022/04/13 12:41:38;;;;;;;2.87;2.50;;;;;;;;;;5053407;28;20496;-72
2022/04/13 12:44:04;;;;;;;8.13;2.40;;;;;;;;;;5053273;28;20410;-72
2022/04/13 12:46:34;;;;;;;4.13;1.93;;;;;;;;;;5053337;28;20415;-70
2022/04/13 12:49:17;;;;;;;4.27;2.10;;;;;;;;;;5053494;28;20438;-70
2022/04/13 12:51:43;;;;;;;3.23;2.63;;;;;;;;;;5053220;28;20418;-72
2022/04/13 12:54:11;;;;;;;2.37;2.17;;;;;;;;;;5053236;28;20422;-72
2022/04/13 12:56:39;;;;;;;5.77;2.20;;;;;;;;;;5055725;28;20430;-71
2022/04/13 12:59:05;;;;;;;5.30;2.00;;;;;;;;;;5057387;28;20886;-72
2022/04/13 13:01:35;;;;;;;3.20;2.23;;;;;;;;;;5057239;28;20467;-71
2022/04/13 13:04:07;;;;;;;5.03;2.63;;;;;;;;;;5057324;28;21028;-70
2022/04/13 13:06:33;;;;;;;2.23;2.10;;;;;;;;;;5057172;28;20871;-69
2022/04/13 13:09:01;;;;;;;5.33;2.70;;;;;;;;;;5057128;28;20525;-73
2022/04/13 13:11:49;;;;;;;6.10;2.67;;;;;;;;;;5057177;28;20881;-75
2022/04/13 13:14:16;;;;;;;4.03;2.20;;;;;;;;;;5056882;28;20419;-75
2022/04/13 13:16:45;;;;;;;3.73;2.50;;;;;;;;;;5055652;28;20425;-76
2022/04/13 13:19:12;;;;;;;3.23;2.60;;;;;;;;;;5056938;28;20773;-71
2022/04/13 13:21:58;;;;;;;4.90;2.20;;;;;;;;;;5056917;28;20467;-71
2022/04/13 13:24:27;;;;;;;3.90;2.10;;;;;;;;;;5056957;28;20460;-72
2022/04/13 13:26:53;;;;;;;14.50;2.60;;;;;;;;;;5055838;28;20434;-69
2022/04/13 13:29:19;;;;;;;7.10;2.53;;;;;;;;;;5056243;28;20437;-70
2022/04/13 13:31:45;;;;;;;10.77;2.57;;;;;;;;;;5058572;28;20450;-81
2022/04/13 13:34:20;;;;;;;4.93;1.80;;;;;;;;;;5058071;28;20411;-83
2022/04/13 13:36:56;;;;;;;4.73;2.90;;;;;;;;;;5056541;28;20793;-80
2022/04/13 13:39:23;;;;;;;5.63;2.40;;;;;;;;;;5057154;28;20469;-75
2022/04/13 13:42:04;;;;;;;3.60;2.30;;;;;;;;;;5057160;28;20415;-79
2022/04/13 13:44:31;;;;;;;3.70;2.20;;;;;;;;;;5056803;28;20414;-82
2022/04/13 13:46:58;;;;;;;14.43;2.27;;;;;;;;;;5056499;28;20542;-79
2022/04/13 13:49:24;;;;;;;17.67;14.80;;;;;;;;;;5056496;28;20407;-77
2022/04/13 13:51:50;;;;;;;4.37;3.97;;;;;;;;;;5056413;28;20445;-70
2022/04/13 13:54:16;;;;;;;5.10;2.53;;;;;;;;;;5056527;28;20407;-73
2022/04/13 13:56:41;;;;;;;2.57;2.40;;;;;;;;;;5055281;28;20438;-74
2022/04/13 13:59:07;;;;;;;2.17;2.07;;;;;;;;;;5054951;28;20823;-79
2022/04/13 14:01:34;;;;;;;4.97;2.63;;;;;;;;;;5056181;28;20472;-82
2022/04/13 14:04:00;;;;;;;1.70;1.60;;;;;;;;;;5056119;28;20411;-81
2022/04/13 14:06:26;;;;;;;3.80;2.53;;;;;;;;;;5056404;28;20411;-78
2022/04/13 14:08:53;;;;;;;5.90;2.00;;;;;;;;;;5055525;28;20901;-81
2022/04/13 14:11:19;;;;;;;5.80;2.40;;;;;;;;;;5056148;28;20415;-79
2022/04/13 14:13:45;;;;;;;8.23;2.40;;;;;;;;;;5055899;28;20436;-80
2022/04/13 14:16:11;;;;;;;3.77;2.20;;;;;;;;;;5054821;28;20434;-69
2022/04/13 14:18:37;;;;;;;3.30;2.33;;;;;;;;;;5055871;28;20417;-71
2022/04/13 14:21:03;;;;;;;2.37;2.10;;;;;;;;;;5055939;28;20478;-70
2022/04/13 14:23:29;;;;;;;5.70;2.03;;;;;;;;;;5055760;28;20764;-71
2022/04/13 14:25:56;;;;;;;8.10;2.87;;;;;;;;;;5055737;28;20937;-68
2022/04/13 14:28:22;;;;;;;8.23;2.57;;;;;;;;;;5055674;28;20439;-70
2022/04/13 14:30:48;;;;;;;2.90;2.40;;;;;;;;;;5054384;28;20437;-73
2022/04/13 14:33:13;;;;;;;4.47;2.80;;;;;;;;;;5055662;28;20418;-71
2022/04/13 14:35:39;;;;;;;5.23;2.30;;;;;;;;;;5055574;28;20849;-81
2022/04/13 14:38:06;;;;;;;2.57;2.07;;;;;;;;;;5054203;28;20782;-69
2022/04/13 14:40:32;;;;;;;7.43;2.60;;;;;;;;;;5053957;28;20490;-71
2022/04/13 14:42:58;;;;;;;5.63;2.33;;;;;;;;;;5055465;28;20403;-80